CheckWX is a tool to help pilots better visualize weather data.  It is not intended as a substitute for an official pre-flight weather briefing.

17:39:25 UTC

WSSS METAR
Singapore Changi International Airport
Singapore, Singapore
Current

39 mins ago

WSSS 111700Z 02005KT 310V070 9999 -RA FEW016 BKN260 25/24 Q1012 NOSIG
Observed
Dec-11 @ 17:00 UTC
Wind
  • 020° at 5 KTS
Visibility
10,000+ meters
Flight Rules
VFR
Conditions
Light Rain
Cloud Levels
  • Few at 1,600' AGL
  • Broken at 26,000' AGL
Temperature
25°C / 77°F
Dewpoint
24°C / 75°F
Humidity
94%
Altimeter
29.88" Hg
Pressure
1011.92 hPa
Previous

1 hour ago

WSSS 111630Z 01006KT 330V060 9999 -RA FEW016 BKN260 25/23 Q1012 NOSIG
Observed
Dec-11 @ 16:30 UTC
Wind
  • 010° at 6 KTS
Visibility
10,000+ meters
Flight Rules
VFR
Conditions
Light Rain
Cloud Levels
  • Few at 1,600' AGL
  • Broken at 26,000' AGL
Temperature
25°C / 77°F
Dewpoint
23°C / 73°F
Humidity
89%
Altimeter
29.88" Hg
Pressure
1011.92 hPa
Previous

2 hours ago

WSSS 111600Z 01005KT 310V110 9999 FEW015 SCT140 BKN260 25/23 Q1012 NOSIG
Observed
Dec-11 @ 16:00 UTC
Wind
  • 010° at 5 KTS
Visibility
10,000+ meters
Flight Rules
VFR
Cloud Levels
  • Few at 1,500' AGL
  • Scattered at 14,000' AGL
  • Broken at 26,000' AGL
Temperature
25°C / 77°F
Dewpoint
23°C / 73°F
Humidity
89%
Altimeter
29.88" Hg
Pressure
1011.92 hPa